TimeMDT,TemperatureF,Dew PointF,Humidity,Sea Level PressureIn,VisibilityMPH,Wind Direction,Wind SpeedMPH,Gust SpeedMPH,PrecipitationIn,Events,Conditions,WindDirDegrees,DateUTC
12:53 AM,41.0,27.0,57,29.96,10.0,West,9.2,-,N/A,,Clear,270,2012-10-10 06:53:00
1:53 AM,37.0,26.1,65,29.98,10.0,WSW,4.6,-,N/A,,Clear,250,2012-10-10 07:53:00
2:53 AM,37.9,27.0,65,29.98,10.0,West,5.8,-,N/A,,Clear,260,2012-10-10 08:53:00
3:53 AM,37.9,28.0,68,29.98,10.0,West,6.9,-,N/A,,Clear,280,2012-10-10 09:53:00
4:53 AM,35.1,26.1,70,29.99,10.0,West,6.9,-,N/A,,Clear,270,2012-10-10 10:53:00
5:53 AM,34.0,27.0,75,29.99,10.0,West,6.9,-,N/A,,Clear,270,2012-10-10 11:53:00
6:53 AM,35.1,28.0,76,30.01,10.0,West,8.1,-,N/A,,Clear,270,2012-10-10 12:53:00
7:53 AM,35.1,28.0,76,30.04,10.0,West,8.1,-,N/A,,Partly Cloudy,280,2012-10-10 13:53:00
8:53 AM,44.1,32.0,63,30.05,10.0,West,4.6,-,N/A,,Clear,270,2012-10-10 14:53:00
9:53 AM,53.1,32.0,45,30.03,10.0,Calm,Calm,-,N/A,,Partly Cloudy,0,2012-10-10 15:53:00
10:53 AM,59.0,35.1,41,30.00,10.0,ESE,6.9,16.1,N/A,,Scattered Clouds,120,2012-10-10 16:53:00
11:53 AM,60.1,34.0,38,29.99,10.0,ESE,9.2,17.3,N/A,,Clear,120,2012-10-10 17:53:00
12:53 PM,63.0,32.0,31,29.96,10.0,SSE,8.1,19.6,N/A,,Clear,150,2012-10-10 18:53:00
1:53 PM,64.0,30.0,28,29.94,10.0,SE,13.8,23.0,N/A,,Clear,140,2012-10-10 19:53:00
2:53 PM,64.0,32.0,30,29.91,10.0,SE,9.2,-,N/A,,Partly Cloudy,140,2012-10-10 20:53:00
3:53 PM,63.0,32.0,31,29.90,10.0,SE,13.8,19.6,N/A,,Mostly Cloudy,130,2012-10-10 21:53:00
4:53 PM,63.0,30.0,29,29.90,10.0,SSE,12.7,-,N/A,,Partly Cloudy,160,2012-10-10 22:53:00
5:53 PM,62.1,30.9,31,29.91,10.0,SE,11.5,-,N/A,,Clear,140,2012-10-10 23:53:00
6:53 PM,57.0,30.9,37,29.93,10.0,SSE,8.1,-,N/A,,Clear,160,2012-10-11 00:53:00
7:53 PM,45.0,28.0,52,30.00,10.0,West,3.5,-,N/A,,Clear,260,2012-10-11 01:53:00
8:53 PM,46.0,28.0,50,29.96,10.0,West,5.8,-,N/A,,Scattered Clouds,260,2012-10-11 02:53:00
9:53 PM,41.0,27.0,57,29.94,10.0,Calm,Calm,-,N/A,,Scattered Clouds,0,2012-10-11 03:53:00
10:53 PM,39.0,27.0,62,29.93,10.0,Calm,Calm,-,N/A,,Scattered Clouds,0,2012-10-11 04:53:00
11:53 PM,36.0,26.1,67,29.93,10.0,Calm,Calm,-,N/A,,Scattered Clouds,0,2012-10-11 05:53:00